Terminal Aerodrome Forecast
Issued by NWS

Home | Current Version | Previous Version | Graphics & Text | Print | Product List | Glossary On
Versions: 1 2 3 4 5 6 7 8 9 10 11 12 13 14 15 16 17 18 19 20 21 22 23 24 25 26 27 28 29 30 31 32 33 34
000
FTUS43 KLOT 011300 AAA
TAFDPA
TAF AMD
KDPA 011357Z 0114/0212 00000KT 2SM BR OVC004
     FM011600 25004KT 5SM BR OVC008
     FM012000 25009KT P6SM BKN030 BKN120
     FM020300 30012KT P6SM SCT030
     FM020800 29009KT P6SM SKC=

USA.gov is the U.S. government's official web portal to all federal, state and local government web resources and services.